CheckWX is a tool to help pilots better visualize weather data.  It is not intended as a substitute for an official pre-flight weather briefing.

01:03:42 UTC

KBFD METAR
Bradford Regional Airport
Bradford, Pennsylvania, USA
Current

11 mins ago

KBFD 270053Z AUTO 35004KT 10SM CLR M02/M14 A3032 RMK AO2 SLP291 T10171144 $
Observed
Mar-27 @ 00:53 UTC
Wind
  • 350° at 4 KTS
Visibility
10 SM
Flight Rules
VFR
Cloud Levels
  • Clear skies
Temperature
-2°C / 28°F
Dewpoint
-14°C / 7°F
Humidity
40%
Altimeter
30.32" Hg
Pressure
1029.1 hPa
Previous

1 hour ago

KBFD 262353Z AUTO 36005KT 10SM CLR 00/M15 A3030 RMK AO2 SLP286 T00001150 10044 20000 53005 $
Observed
Mar-26 @ 23:53 UTC
Wind
  • 360° at 5 KTS
Visibility
10 SM
Flight Rules
VFR
Cloud Levels
  • Clear skies
Temperature
C / 32°F
Dewpoint
-15°C / 5°F
Humidity
32%
Altimeter
30.3" Hg
Pressure
1028.6 hPa
Previous

2 hours ago

KBFD 262253Z AUTO 01008KT 10SM CLR 03/M15 A3029 RMK AO2 SLP282 T00281150 $
Observed
Mar-26 @ 22:53 UTC
Wind
  • 010° at 8 KTS
Visibility
10 SM
Flight Rules
VFR
Cloud Levels
  • Clear skies
Temperature
C / 37°F
Dewpoint
-15°C / 5°F
Humidity
26%
Altimeter
30.29" Hg
Pressure
1028.2 hPa